createdAt,value
2023-02-02T00:03:33.765Z,9.00
2023-02-02T00:06:22.482Z,7.90
2023-02-02T00:09:11.802Z,8.15
2023-02-02T00:12:00.458Z,6.93
2023-02-02T00:14:47.520Z,10.63
2023-02-02T00:17:34.590Z,7.72
2023-02-02T00:20:22.766Z,6.00
2023-02-02T00:23:09.886Z,8.45
2023-02-02T00:25:56.884Z,9.27
2023-02-02T00:28:44.116Z,4.50
2023-02-02T00:31:31.355Z,7.68
2023-02-02T00:34:19.057Z,5.20
2023-02-02T00:37:06.121Z,6.47
2023-02-02T00:39:53.197Z,5.63
2023-02-02T00:42:40.348Z,5.93
2023-02-02T00:45:27.508Z,5.43
2023-02-02T00:48:14.625Z,3.45
2023-02-02T00:51:02.432Z,7.07
2023-02-02T00:53:49.468Z,7.05
2023-02-02T00:56:36.609Z,9.93
2023-02-02T00:59:23.771Z,9.52
2023-02-02T01:02:11.650Z,9.02
2023-02-02T01:04:58.759Z,9.90
2023-02-02T01:07:46.246Z,12.68
2023-02-02T01:10:34.171Z,9.57
2023-02-02T01:13:21.424Z,4.63
2023-02-02T01:16:09.400Z,9.35
2023-02-02T01:18:56.840Z,9.45
2023-02-02T01:21:43.979Z,4.88
2023-02-02T01:24:31.150Z,6.38
2023-02-02T01:27:18.822Z,8.32
2023-02-02T01:30:06.870Z,5.55
2023-02-02T01:32:53.901Z,6.03
2023-02-02T01:35:48.720Z,7.63
2023-02-02T01:38:36.123Z,6.10
2023-02-02T01:41:24.916Z,2.55
2023-02-02T01:44:56.952Z,3.13
2023-02-02T01:47:49.157Z,1.75
2023-02-02T01:50:36.304Z,3.63
2023-02-02T01:53:24.130Z,2.85
2023-02-02T01:56:14.672Z,3.05
2023-02-02T01:59:02.948Z,1.20
2023-02-02T02:01:52.084Z,1.60
2023-02-02T02:04:40.213Z,3.17
2023-02-02T02:07:27.435Z,3.13
2023-02-02T02:10:14.514Z,2.30
2023-02-02T02:13:01.650Z,3.28
2023-02-02T02:16:20.361Z,3.10
2023-02-02T02:20:07.694Z,0.90
2023-02-02T02:23:38.401Z,2.47
2023-02-02T02:27:04.482Z,2.85
2023-02-02T02:30:21.061Z,1.80
2023-02-02T02:33:24.128Z,2.15
2023-02-02T02:36:19.466Z,1.33
2023-02-02T02:39:20.397Z,3.70
2023-02-02T02:42:15.779Z,0.95
2023-02-02T02:45:05.177Z,2.47
2023-02-02T02:47:53.487Z,2.15
2023-02-02T02:50:40.543Z,0.88
2023-02-02T02:53:27.643Z,1.48
2023-02-02T02:56:24.858Z,0.13
2023-02-02T02:59:21.283Z,0.47
2023-02-02T03:02:20.561Z,0.43
2023-02-02T03:05:46.183Z,0.30
2023-02-02T03:08:40.545Z,0.90
2023-02-02T03:11:28.351Z,0.63
2023-02-02T03:14:15.394Z,0.95
2023-02-02T03:17:02.563Z,1.08
2023-02-02T03:19:49.679Z,0.45
2023-02-02T03:22:36.942Z,0.90
2023-02-02T03:25:24.833Z,0.57
2023-02-02T03:28:12.799Z,2.30
2023-02-02T03:31:01.704Z,0.32
2023-02-02T03:33:48.865Z,1.02
2023-02-02T03:36:35.891Z,1.67
2023-02-02T03:39:23.011Z,0.65
2023-02-02T03:42:10.088Z,2.13
2023-02-02T03:44:57.155Z,0.50
2023-02-02T03:47:44.226Z,0.85
2023-02-02T03:50:31.381Z,1.55
2023-02-02T03:53:18.612Z,1.20
2023-02-02T03:56:06.170Z,1.13
2023-02-02T03:58:53.249Z,1.52
2023-02-02T04:01:40.429Z,1.58
2023-02-02T04:04:27.485Z,1.42
2023-02-02T04:07:14.640Z,1.25
2023-02-02T04:10:01.675Z,1.33
2023-02-02T04:12:48.780Z,1.05
2023-02-02T04:15:35.841Z,0.95
2023-02-02T04:18:23.064Z,0.52
2023-02-02T04:21:10.162Z,1.48
2023-02-02T04:23:57.565Z,1.27
2023-02-02T04:26:44.840Z,0.43
2023-02-02T04:29:32.045Z,1.50
2023-02-02T04:32:19.236Z,1.52
2023-02-02T04:35:06.938Z,1.58
2023-02-02T04:37:55.524Z,0.50
2023-02-02T04:40:45.246Z,0.55
2023-02-02T04:43:34.262Z,0.73
2023-02-02T04:46:21.469Z,1.45
2023-02-02T04:49:11.447Z,2.30
2023-02-02T04:51:58.538Z,2.10
2023-02-02T04:54:45.616Z,3.08
2023-02-02T04:57:32.704Z,0.52
2023-02-02T05:00:20.022Z,0.50
2023-02-02T05:03:07.178Z,0.45
2023-02-02T05:06:04.779Z,0.93
2023-02-02T05:08:51.990Z,0.47
2023-02-02T05:11:41.234Z,0.57
2023-02-02T05:14:28.410Z,2.17
2023-02-02T05:17:15.639Z,1.50
2023-02-02T05:20:02.796Z,1.67
2023-02-02T05:22:50.213Z,1.85
2023-02-02T05:25:37.437Z,2.28
2023-02-02T05:28:25.107Z,3.30
2023-02-02T05:31:12.705Z,1.60
2023-02-02T05:34:00.018Z,1.30
2023-02-02T05:36:47.364Z,2.08
2023-02-02T05:39:34.564Z,1.98
2023-02-02T05:42:21.832Z,2.28
2023-02-02T05:45:09.452Z,3.10
2023-02-02T05:47:56.622Z,2.15
2023-02-02T05:50:49.658Z,5.78
2023-02-02T05:53:36.849Z,1.33
2023-02-02T05:56:24.040Z,1.55
2023-02-02T05:59:11.223Z,4.15
2023-02-02T06:01:58.378Z,2.67
2023-02-02T06:04:45.622Z,1.33
2023-02-02T06:07:33.189Z,4.07
2023-02-02T06:10:20.375Z,2.33
2023-02-02T06:13:08.393Z,1.25
2023-02-02T06:15:55.572Z,3.72
2023-02-02T06:18:42.848Z,1.50
2023-02-02T06:21:32.734Z,4.45
2023-02-02T06:24:19.840Z,1.73
2023-02-02T06:27:07.004Z,2.05
2023-02-02T06:29:54.092Z,2.13
2023-02-02T06:32:41.524Z,2.80
2023-02-02T06:35:28.638Z,1.92
2023-02-02T06:38:15.987Z,3.33
2023-02-02T06:41:03.805Z,2.22
2023-02-02T06:43:51.015Z,2.97
2023-02-02T06:46:38.159Z,2.05
2023-02-02T06:49:25.287Z,3.05
2023-02-02T06:52:15.004Z,2.90
2023-02-02T06:55:02.676Z,2.38
2023-02-02T06:57:56.718Z,1.58
2023-02-02T07:00:43.790Z,3.17
2023-02-02T07:03:31.082Z,2.67
2023-02-02T07:06:19.887Z,3.60
2023-02-02T07:09:07.164Z,5.05
2023-02-02T07:11:54.267Z,3.90
2023-02-02T07:14:41.481Z,1.92
2023-02-02T07:17:29.041Z,2.45
2023-02-02T07:20:16.463Z,1.85
2023-02-02T07:23:04.651Z,5.68
2023-02-02T07:26:01.126Z,2.95
2023-02-02T07:28:48.529Z,4.03
2023-02-02T07:31:36.817Z,5.20
2023-02-02T07:34:24.701Z,5.20
2023-02-02T07:37:11.870Z,3.28
2023-02-02T07:39:59.057Z,4.40
2023-02-02T07:42:48.073Z,5.68
2023-02-02T07:45:36.480Z,5.20
2023-02-02T07:48:23.709Z,6.43
2023-02-02T07:51:15.296Z,5.20
2023-02-02T07:54:02.418Z,5.43
2023-02-02T07:56:49.831Z,3.97
2023-02-02T07:59:36.958Z,7.47
2023-02-02T08:02:24.253Z,4.40
2023-02-02T08:05:11.962Z,4.57
2023-02-02T08:07:59.101Z,3.58
2023-02-02T08:10:50.434Z,4.35
2023-02-02T08:13:38.002Z,5.25
2023-02-02T08:16:26.966Z,5.47
2023-02-02T08:19:14.467Z,2.60
2023-02-02T08:22:01.611Z,2.95
2023-02-02T08:24:48.738Z,4.65
2023-02-02T08:27:37.889Z,2.33
2023-02-02T08:30:25.842Z,1.70
2023-02-02T08:33:13.736Z,2.53
2023-02-02T08:36:02.058Z,3.92
2023-02-02T08:38:50.049Z,2.90
2023-02-02T08:41:37.790Z,2.50
2023-02-02T08:44:27.478Z,3.17
2023-02-02T08:47:30.450Z,3.97
2023-02-02T08:50:18.523Z,2.95
2023-02-02T08:53:05.819Z,5.00
2023-02-02T08:56:04.621Z,4.45
2023-02-02T08:58:58.322Z,2.05
2023-02-02T09:01:45.447Z,2.30
2023-02-02T09:04:32.622Z,2.30
2023-02-02T09:07:21.204Z,2.78
2023-02-02T09:10:08.973Z,1.98
2023-02-02T09:12:56.043Z,1.38
2023-02-02T09:15:43.387Z,1.95
2023-02-02T09:21:02.745Z,1.58
2023-02-02T09:23:51.621Z,3.53
2023-02-02T09:26:40.532Z,1.63
2023-02-02T09:29:27.762Z,1.60
2023-02-02T09:32:14.889Z,1.70
2023-02-02T09:35:01.959Z,2.28
2023-02-02T09:37:49.035Z,1.38
2023-02-02T09:40:36.227Z,2.58
2023-02-02T09:43:49.287Z,3.13
2023-02-02T09:46:54.954Z,4.07
2023-02-02T09:50:00.342Z,1.50
2023-02-02T09:52:55.233Z,2.05
2023-02-02T09:55:45.610Z,2.05
2023-02-02T09:58:37.181Z,2.80
2023-02-02T10:01:32.013Z,1.60
2023-02-02T10:04:40.451Z,2.85
2023-02-02T10:07:34.821Z,2.25
2023-02-02T10:10:29.388Z,1.60
2023-02-02T10:13:23.401Z,2.03
2023-02-02T10:16:18.992Z,5.03
2023-02-02T10:19:14.283Z,4.07
2023-02-02T10:22:10.879Z,1.63
2023-02-02T10:24:58.849Z,1.83
2023-02-02T10:28:00.548Z,2.25
2023-02-02T10:30:59.416Z,4.05
2023-02-02T10:34:02.468Z,2.17
2023-02-02T10:37:15.779Z,1.52
2023-02-02T10:40:26.053Z,2.47
2023-02-02T10:43:40.829Z,3.28
2023-02-02T10:46:31.756Z,2.20
2023-02-02T10:49:34.558Z,3.90
2023-02-02T10:52:29.735Z,2.17
2023-02-02T10:55:27.719Z,3.63
2023-02-02T10:58:25.041Z,2.17
2023-02-02T11:01:12.314Z,0.88
2023-02-02T11:04:25.685Z,2.63
2023-02-02T11:07:20.783Z,3.30
2023-02-02T11:10:08.134Z,4.15
2023-02-02T11:12:58.378Z,2.08
2023-02-02T11:15:46.131Z,4.68
2023-02-02T11:18:33.257Z,2.80
2023-02-02T11:21:20.648Z,4.45
2023-02-02T11:24:24.774Z,3.15
2023-02-02T11:27:20.394Z,2.40
2023-02-02T11:30:36.061Z,10.82
2023-02-02T11:33:28.507Z,2.63
2023-02-02T11:36:21.429Z,5.30
2023-02-02T11:39:16.445Z,2.65
2023-02-02T11:42:20.169Z,1.65
2023-02-02T11:45:19.708Z,1.90
2023-02-02T11:48:20.514Z,3.92
2023-02-02T11:51:08.247Z,2.83
2023-02-02T11:54:18.485Z,2.33
2023-02-02T12:00:10.470Z,2.42
2023-02-02T12:02:59.242Z,2.60
2023-02-02T12:05:50.079Z,2.95
2023-02-02T12:08:37.557Z,3.00
2023-02-02T12:11:33.350Z,2.25
2023-02-02T12:15:02.688Z,2.78
2023-02-02T12:17:57.090Z,1.30
2023-02-02T12:20:50.683Z,1.08
2023-02-02T12:23:57.976Z,1.17
2023-02-02T12:26:52.161Z,1.23
2023-02-02T12:30:25.101Z,2.47
2023-02-02T12:33:50.860Z,1.50
2023-02-02T12:36:43.896Z,2.30
2023-02-02T12:40:01.775Z,0.80
2023-02-02T12:43:18.163Z,1.88
2023-02-02T12:46:13.213Z,0.88
2023-02-02T12:49:17.316Z,0.95
2023-02-02T12:52:25.017Z,2.00
2023-02-02T12:55:42.113Z,4.80
2023-02-02T12:58:37.810Z,1.77
2023-02-02T13:01:40.706Z,2.08
2023-02-02T13:05:01.512Z,2.90
2023-02-02T13:08:21.691Z,2.05
2023-02-02T13:11:32.998Z,1.58
2023-02-02T13:14:30.272Z,1.45
2023-02-02T13:17:42.911Z,0.85
2023-02-02T13:20:48.681Z,1.92
2023-02-02T13:23:57.937Z,1.77
2023-02-02T13:26:46.481Z,1.63
2023-02-02T13:29:53.100Z,2.88
2023-02-02T13:32:45.760Z,3.00
2023-02-02T13:35:51.970Z,2.05
2023-02-02T13:38:42.359Z,1.95
2023-02-02T13:41:31.490Z,1.77
2023-02-02T13:44:42.304Z,1.83
2023-02-02T13:47:39.807Z,3.47
2023-02-02T13:50:30.480Z,1.75
2023-02-02T13:53:59.136Z,1.38
2023-02-02T13:57:04.422Z,1.83
2023-02-02T14:00:23.683Z,3.90
2023-02-02T14:03:32.282Z,2.08
2023-02-02T14:06:21.285Z,1.58
2023-02-02T14:09:18.810Z,1.80
2023-02-02T14:12:09.855Z,1.38
2023-02-02T14:14:57.302Z,3.35
2023-02-02T14:17:44.386Z,1.33
2023-02-02T14:20:45.066Z,1.60
2023-02-02T14:23:51.719Z,2.47
2023-02-02T14:26:46.679Z,1.65
2023-02-02T14:29:35.858Z,1.90
2023-02-02T14:32:28.749Z,2.55
2023-02-02T14:35:15.771Z,2.83
2023-02-02T14:38:15.653Z,2.35
2023-02-02T14:41:41.837Z,1.88
2023-02-02T14:44:29.089Z,2.28
2023-02-02T14:47:42.834Z,2.00
2023-02-02T14:50:32.725Z,3.67
2023-02-02T14:53:29.653Z,1.60
2023-02-02T14:56:17.945Z,2.35
2023-02-02T14:59:07.712Z,2.30
2023-02-02T15:02:02.694Z,3.03
2023-02-02T15:04:49.972Z,3.78
2023-02-02T15:07:50.542Z,4.47
2023-02-02T15:10:53.899Z,3.03
2023-02-02T15:13:42.761Z,2.50
2023-02-02T15:16:32.132Z,4.75
2023-02-02T15:19:27.550Z,2.58
2023-02-02T15:22:46.553Z,2.67
2023-02-02T15:25:51.877Z,4.97
2023-02-02T15:28:41.658Z,3.85
2023-02-02T15:31:35.716Z,3.65
2023-02-02T15:34:31.108Z,3.40
2023-02-02T15:37:30.702Z,3.08
2023-02-02T15:40:25.206Z,3.60
2023-02-02T15:43:14.085Z,3.22
2023-02-02T15:46:09.621Z,3.67
2023-02-02T15:49:36.296Z,3.97
2023-02-02T15:52:27.398Z,3.85
2023-02-02T15:55:25.238Z,6.60
2023-02-02T15:58:33.505Z,4.03
2023-02-02T16:01:23.478Z,5.82
2023-02-02T16:04:20.394Z,4.35
2023-02-02T16:07:14.988Z,4.47
2023-02-02T16:10:04.602Z,4.32
2023-02-02T16:12:52.118Z,4.07
2023-02-02T16:15:39.101Z,4.53
2023-02-02T16:18:27.280Z,15.15
2023-02-02T16:21:23.947Z,4.70
2023-02-02T16:24:17.269Z,5.53
2023-02-02T16:27:06.983Z,4.82
2023-02-02T16:29:58.590Z,6.03
2023-02-02T16:32:45.641Z,9.55
2023-02-02T16:35:38.601Z,20.90
2023-02-02T16:38:34.490Z,26.13
2023-02-02T16:41:36.356Z,29.23
2023-02-02T16:44:40.944Z,5.88
2023-02-02T16:47:28.161Z,8.48
2023-02-02T16:50:33.680Z,21.30
2023-02-02T16:53:23.472Z,17.55
2023-02-02T16:56:24.418Z,7.10
2023-02-02T16:59:26.180Z,7.18
2023-02-02T17:02:21.129Z,13.65
2023-02-02T17:05:17.246Z,8.15
2023-02-02T17:08:07.932Z,12.27
2023-02-02T17:11:22.541Z,8.00
2023-02-02T17:14:25.667Z,14.50
2023-02-02T17:17:14.003Z,7.88
2023-02-02T17:20:04.286Z,6.97
2023-02-02T17:25:44.519Z,10.27
2023-02-02T17:28:32.093Z,13.15
2023-02-02T17:31:26.225Z,8.57
2023-02-02T17:34:15.556Z,8.18
2023-02-02T17:37:02.890Z,8.43
2023-02-02T17:39:50.892Z,7.55
2023-02-02T17:42:39.058Z,8.98
2023-02-02T17:45:34.421Z,11.18
2023-02-02T17:48:23.433Z,8.63
2023-02-02T17:51:17.000Z,8.68
2023-02-02T17:54:09.408Z,9.10
2023-02-02T17:56:58.971Z,23.17
2023-02-02T17:59:46.206Z,11.80
2023-02-02T18:02:34.402Z,25.95
2023-02-02T18:05:21.796Z,15.15
2023-02-02T18:08:11.614Z,9.73
2023-02-02T18:10:59.620Z,15.88
2023-02-02T18:13:47.191Z,32.53
2023-02-02T18:16:35.688Z,12.07
2023-02-02T18:19:23.266Z,16.33
2023-02-02T18:22:14.451Z,10.43
2023-02-02T18:25:04.274Z,10.15
2023-02-02T18:27:52.556Z,9.20
2023-02-02T18:30:42.120Z,10.20
2023-02-02T18:33:29.463Z,9.52
2023-02-02T18:36:20.158Z,10.73
2023-02-02T18:39:10.010Z,9.93
2023-02-02T18:41:58.246Z,11.48
2023-02-02T18:44:45.844Z,10.90
2023-02-02T18:47:33.643Z,9.63
2023-02-02T18:50:22.140Z,9.38
2023-02-02T18:53:09.399Z,10.65
2023-02-02T18:55:56.710Z,11.13
2023-02-02T18:58:44.721Z,11.70
2023-02-02T19:01:32.696Z,10.13
2023-02-02T19:04:20.536Z,12.15
2023-02-02T19:07:26.658Z,9.88
2023-02-02T19:10:15.116Z,11.43
2023-02-02T19:13:19.687Z,12.32
2023-02-02T19:16:18.725Z,10.82
2023-02-02T19:19:30.434Z,10.73
2023-02-02T19:22:23.767Z,9.82
2023-02-02T19:25:13.145Z,9.68
2023-02-02T19:28:15.402Z,11.10
2023-02-02T19:31:02.836Z,12.48
2023-02-02T19:33:52.117Z,12.10
2023-02-02T19:36:42.210Z,10.68
2023-02-02T19:39:31.414Z,11.50
2023-02-02T19:42:18.842Z,10.27
2023-02-02T19:45:23.203Z,11.15
2023-02-02T19:48:17.071Z,12.32
2023-02-02T19:51:44.378Z,10.73
2023-02-02T19:54:38.142Z,8.52
2023-02-02T19:57:36.920Z,7.55
2023-02-02T20:00:30.304Z,11.68
2023-02-02T20:03:27.701Z,8.50
2023-02-02T20:06:35.020Z,8.93
2023-02-02T20:09:25.302Z,5.78
2023-02-02T20:12:24.839Z,7.38
2023-02-02T20:15:34.816Z,13.98
2023-02-02T20:18:29.820Z,22.77
2023-02-02T20:21:45.840Z,14.10
2023-02-02T20:24:37.354Z,15.75
2023-02-02T20:27:27.456Z,10.05
2023-02-02T20:30:28.466Z,13.52
2023-02-02T20:33:27.579Z,12.07
2023-02-02T20:36:38.224Z,12.82
2023-02-02T20:39:36.323Z,15.93
2023-02-02T20:42:24.313Z,6.38
2023-02-02T20:45:12.122Z,8.63
2023-02-02T20:47:59.636Z,40.50
2023-02-02T20:50:47.263Z,23.65
2023-02-02T20:53:35.429Z,32.72
2023-02-02T20:56:25.883Z,17.17
2023-02-02T20:59:14.773Z,6.60
2023-02-02T21:02:02.407Z,26.73
2023-02-02T21:04:50.703Z,10.43
2023-02-02T21:07:37.795Z,11.38
2023-02-02T21:10:26.427Z,8.20
2023-02-02T21:13:13.847Z,19.45
2023-02-02T21:16:01.206Z,10.35
2023-02-02T21:18:48.845Z,7.63
2023-02-02T21:21:36.115Z,14.10
2023-02-02T21:24:24.204Z,7.03
2023-02-02T21:27:11.383Z,6.45
2023-02-02T21:29:58.560Z,7.75
2023-02-02T21:32:45.777Z,7.38
2023-02-02T21:35:34.442Z,6.43
2023-02-02T21:38:21.714Z,6.95
2023-02-02T21:41:14.454Z,6.28
2023-02-02T21:44:01.545Z,7.63
2023-02-02T21:46:51.884Z,8.23
2023-02-02T21:49:39.951Z,7.93
2023-02-02T21:52:32.646Z,6.93
2023-02-02T21:55:29.309Z,5.93
2023-02-02T21:58:22.761Z,7.45
2023-02-02T22:01:42.287Z,9.25
2023-02-02T22:04:29.601Z,5.13
2023-02-02T22:07:16.786Z,6.13
2023-02-02T22:10:29.796Z,7.45
2023-02-02T22:13:18.460Z,7.22
2023-02-02T22:16:15.613Z,6.00
2023-02-02T22:19:11.695Z,6.57
2023-02-02T22:22:17.051Z,6.40
2023-02-02T22:25:10.624Z,7.82
2023-02-02T22:27:59.867Z,5.93
2023-02-02T22:30:47.939Z,6.70
2023-02-02T22:33:35.057Z,6.72
2023-02-02T22:36:22.046Z,5.93
2023-02-02T22:39:09.285Z,6.32
2023-02-02T22:41:56.263Z,5.60
2023-02-02T22:44:44.270Z,6.00
2023-02-02T22:47:31.305Z,4.65
2023-02-02T22:50:21.976Z,5.05
2023-02-02T22:53:09.102Z,7.05
2023-02-02T22:55:56.812Z,4.78
2023-02-02T22:58:43.859Z,5.40
2023-02-02T23:01:30.888Z,5.47
2023-02-02T23:04:17.892Z,6.07
2023-02-02T23:07:04.973Z,6.35
2023-02-02T23:09:52.015Z,6.35
2023-02-02T23:12:39.946Z,5.40
2023-02-02T23:15:27.813Z,6.93
2023-02-02T23:18:14.867Z,6.18
2023-02-02T23:21:01.846Z,5.78
2023-02-02T23:23:49.593Z,6.63
2023-02-02T23:26:36.583Z,5.50
2023-02-02T23:29:23.819Z,5.47
2023-02-02T23:32:10.835Z,5.78
2023-02-02T23:34:57.858Z,4.88
2023-02-02T23:37:44.918Z,5.45
2023-02-02T23:40:31.951Z,4.20
2023-02-02T23:43:18.995Z,5.32
2023-02-02T23:46:06.041Z,5.68
2023-02-02T23:48:54.071Z,5.97
2023-02-02T23:51:41.335Z,5.57
2023-02-02T23:54:29.517Z,4.80
2023-02-02T23:57:16.656Z,5.10
